sensor_id;sensor_type;location;lat;lon;timestamp;pressure;altitude;pressure_sealevel;temperature
32827;BMP280;51059;42.058;27.986;2024-03-23T00:54:02;78512.59;;;-131.54
32827;BMP280;51059;42.058;27.986;2024-03-23T00:56:29;78532.00;;;-131.54
32827;BMP280;51059;42.058;27.986;2024-03-23T00:58:55;78535.88;;;-131.54
32827;BMP280;51059;42.058;27.986;2024-03-23T01:01:21;78547.50;;;-131.54
32827;BMP280;51059;42.058;27.986;2024-03-23T01:03:47;78547.50;;;-131.54
32827;BMP280;51059;42.058;27.986;2024-03-23T01:06:13;78512.59;;;-131.54
32827;BMP280;51059;42.058;27.986;2024-03-23T01:08:39;78557.19;;;-131.54
32827;BMP280;51059;42.058;27.986;2024-03-23T01:11:05;78524.22;;;-131.54
32827;BMP280;51059;42.058;27.986;2024-03-23T01:13:31;78516.47;;;-131.54
32827;BMP280;51059;42.058;27.986;2024-03-23T01:15:57;78532.00;;;-131.54
32827;BMP280;51059;42.058;27.986;2024-03-23T01:18:24;78532.00;;;-131.54
32827;BMP280;51059;42.058;27.986;2024-03-23T01:20:52;78543.63;;;-131.54
32827;BMP280;51059;42.058;27.986;2024-03-23T01:23:17;78516.47;;;-131.54
32827;BMP280;51059;42.058;27.986;2024-03-23T01:25:43;78520.34;;;-131.54
32827;BMP280;51059;42.058;27.986;2024-03-23T01:28:16;78530.03;;;-131.54
32827;BMP280;51059;42.058;27.986;2024-03-23T01:30:43;78561.06;;;-131.54
32827;BMP280;51059;42.058;27.986;2024-03-23T01:33:09;78559.13;;;-131.54
32827;BMP280;51059;42.058;27.986;2024-03-23T01:35:35;78576.56;;;-131.54
32827;BMP280;51059;42.058;27.986;2024-03-23T01:38:01;78566.88;;;-131.54
32827;BMP280;51059;42.058;27.986;2024-03-23T01:40:28;78586.28;;;-131.54
32827;BMP280;51059;42.058;27.986;2024-03-23T01:42:58;78617.28;;;-131.54
32827;BMP280;51059;42.058;27.986;2024-03-23T01:45:27;78621.16;;;-131.54
32827;BMP280;51059;42.058;27.986;2024-03-23T01:47:53;78617.28;;;-131.54
32827;BMP280;51059;42.058;27.986;2024-03-23T01:50:22;78617.28;;;-131.54
32827;BMP280;51059;42.058;27.986;2024-03-23T01:52:50;78621.16;;;-131.54
32827;BMP280;51059;42.058;27.986;2024-03-23T01:55:16;78617.28;;;-131.54
32827;BMP280;51059;42.058;27.986;2024-03-23T01:57:43;78609.53;;;-131.54
32827;BMP280;51059;42.058;27.986;2024-03-23T02:00:09;78634.75;;;-131.54
32827;BMP280;51059;42.058;27.986;2024-03-23T02:02:45;78627.00;;;-131.54
32827;BMP280;51059;42.058;27.986;2024-03-23T02:05:12;78613.41;;;-131.54
32827;BMP280;51059;42.058;27.986;2024-03-23T02:07:39;78615.34;;;-131.54
32827;BMP280;51059;42.058;27.986;2024-03-23T02:10:11;78656.06;;;-131.54
32827;BMP280;51059;42.058;27.986;2024-03-23T02:12:41;78667.69;;;-131.54
32827;BMP280;51059;42.058;27.986;2024-03-23T02:15:06;78640.56;;;-131.54
32827;BMP280;51059;42.058;27.986;2024-03-23T02:17:35;78644.44;;;-131.54
32827;BMP280;51059;42.058;27.986;2024-03-23T02:20:02;78679.34;;;-131.54
32827;BMP280;51059;42.058;27.986;2024-03-23T02:22:39;78679.34;;;-131.54
32827;BMP280;51059;42.058;27.986;2024-03-23T02:25:07;78718.09;;;-131.54
32827;BMP280;51059;42.058;27.986;2024-03-23T02:27:33;78690.97;;;-131.54
32827;BMP280;51059;42.058;27.986;2024-03-23T02:30:01;78671.59;;;-131.54
32827;BMP280;51059;42.058;27.986;2024-03-23T02:32:28;78675.47;;;-131.54
32827;BMP280;51059;42.058;27.986;2024-03-23T02:34:54;78671.59;;;-131.54
32827;BMP280;51059;42.058;27.986;2024-03-23T02:37:20;78694.84;;;-131.54
32827;BMP280;51059;42.058;27.986;2024-03-23T02:39:46;78696.78;;;-131.54
32827;BMP280;51059;42.058;27.986;2024-03-23T02:42:12;78718.09;;;-131.54
32827;BMP280;51059;42.058;27.986;2024-03-23T02:44:38;78687.09;;;-131.54
32827;BMP280;51059;42.058;27.986;2024-03-23T02:47:04;78667.69;;;-131.54
32827;BMP280;51059;42.058;27.986;2024-03-23T02:49:30;78679.34;;;-131.54
32827;BMP280;51059;42.058;27.986;2024-03-23T02:51:56;78690.97;;;-131.54
32827;BMP280;51059;42.058;27.986;2024-03-23T02:54:22;78652.19;;;-131.54
32827;BMP280;51059;42.058;27.986;2024-03-23T02:56:47;78687.09;;;-131.54
32827;BMP280;51059;42.058;27.986;2024-03-23T02:59:13;78690.97;;;-131.54
32827;BMP280;51059;42.058;27.986;2024-03-23T03:01:40;78704.53;;;-131.54
32827;BMP280;51059;42.058;27.986;2024-03-23T03:04:06;78714.22;;;-131.54
32827;BMP280;51059;42.058;27.986;2024-03-23T03:06:32;78700.66;;;-131.54
32827;BMP280;51059;42.058;27.986;2024-03-23T03:08:58;78718.09;;;-131.54
32827;BMP280;51059;42.058;27.986;2024-03-23T03:11:24;78704.53;;;-131.54
32827;BMP280;51059;42.058;27.986;2024-03-23T03:13:50;78704.53;;;-131.54
32827;BMP280;51059;42.058;27.986;2024-03-23T03:16:15;78694.84;;;-131.54
32827;BMP280;51059;42.058;27.986;2024-03-23T03:18:41;78694.84;;;-131.54
32827;BMP280;51059;42.058;27.986;2024-03-23T03:21:07;78725.88;;;-131.54
32827;BMP280;51059;42.058;27.986;2024-03-23T03:23:37;78729.75;;;-131.54
32827;BMP280;51059;42.058;27.986;2024-03-23T03:26:03;78704.53;;;-131.54
32827;BMP280;51059;42.058;27.986;2024-03-23T03:28:31;78706.47;;;-131.54
32827;BMP280;51059;42.058;27.986;2024-03-23T03:30:59;78725.88;;;-131.54
32827;BMP280;51059;42.058;27.986;2024-03-23T03:33:26;78747.19;;;-131.54
32827;BMP280;51059;42.058;27.986;2024-03-23T03:35:54;78762.72;;;-131.54
32827;BMP280;51059;42.058;27.986;2024-03-23T03:38:20;78756.88;;;-131.54
32827;BMP280;51059;42.058;27.986;2024-03-23T03:40:47;78774.34;;;-131.54
32827;BMP280;51059;42.058;27.986;2024-03-23T03:43:13;78756.88;;;-131.54
32827;BMP280;51059;42.058;27.986;2024-03-23T03:45:39;78778.22;;;-131.54
32827;BMP280;51059;42.058;27.986;2024-03-23T03:48:05;78784.03;;;-131.54
32827;BMP280;51059;42.058;27.986;2024-03-23T03:50:31;78791.78;;;-131.54
32827;BMP280;51059;42.058;27.986;2024-03-23T03:52:58;78799.53;;;-131.54
32827;BMP280;51059;42.058;27.986;2024-03-23T03:55:24;78813.13;;;-131.54
32827;BMP280;51059;42.058;27.986;2024-03-23T03:57:50;78782.09;;;-131.54
32827;BMP280;51059;42.058;27.986;2024-03-23T04:00:20;78787.91;;;-131.54
32827;BMP280;51059;42.058;27.986;2024-03-23T04:02:46;78753.00;;;-131.54
32827;BMP280;51059;42.058;27.986;2024-03-23T04:05:14;78747.19;;;-131.54
32827;BMP280;51059;42.058;27.986;2024-03-23T04:07:40;78725.88;;;-131.54
32827;BMP280;51059;42.058;27.986;2024-03-23T04:10:06;78687.09;;;-131.54
32827;BMP280;51059;42.058;27.986;2024-03-23T04:12:34;78594.03;;;-131.54
32827;BMP280;51059;42.058;27.986;2024-03-23T04:15:00;78533.94;;;-131.54
32827;BMP280;51059;42.058;27.986;2024-03-23T04:17:26;78466.06;;;-131.54
32827;BMP280;51059;42.058;27.986;2024-03-23T04:19:57;78388.53;;;-131.54
32827;BMP280;51059;42.058;27.986;2024-03-23T04:22:23;78295.47;;;-131.54
32827;BMP280;51059;42.058;27.986;2024-03-23T04:24:56;78206.28;;;-131.54
32827;BMP280;51059;42.058;27.986;2024-03-23T04:27:23;78113.25;;;-131.54
32827;BMP280;51059;42.058;27.986;2024-03-23T04:29:50;78026.03;;;-131.54
32827;BMP280;51059;42.058;27.986;2024-03-23T04:32:16;77952.34;;;-131.54
32827;BMP280;51059;42.058;27.986;2024-03-23T04:34:43;77865.13;;;-131.54
32827;BMP280;51059;42.058;27.986;2024-03-23T04:37:10;77766.28;;;-131.54
32827;BMP280;51059;42.058;27.986;2024-03-23T04:39:37;77748.84;;;-131.54
32827;BMP280;51059;42.058;27.986;2024-03-23T04:42:05;77841.88;;;-131.54
32827;BMP280;51059;42.058;27.986;2024-03-23T04:44:31;77857.38;;;-131.54
32827;BMP280;51059;42.058;27.986;2024-03-23T04:46:57;77818.63;;;-131.54
32827;BMP280;51059;42.058;27.986;2024-03-23T04:49:23;77861.25;;;-131.54
32827;BMP280;51059;42.058;27.986;2024-03-23T04:51:49;77880.66;;;-131.54
32827;BMP280;51059;42.058;27.986;2024-03-23T04:54:15;77853.50;;;-131.54
32827;BMP280;51059;42.058;27.986;2024-03-23T04:56:41;77807.00;;;-131.54
32827;BMP280;51059;42.058;27.986;2024-03-23T04:59:07;77752.72;;;-131.54
32827;BMP280;51059;42.058;27.986;2024-03-23T05:01:33;77741.09;;;-131.54
32827;BMP280;51059;42.058;27.986;2024-03-23T05:04:00;77700.38;;;-131.54
32827;BMP280;51059;42.058;27.986;2024-03-23T05:06:27;77671.31;;;-131.54
32827;BMP280;51059;42.058;27.986;2024-03-23T05:08:54;77651.94;;;-131.54
32827;BMP280;51059;42.058;27.986;2024-03-23T05:11:19;77636.44;;;-131.54
32827;BMP280;51059;42.058;27.986;2024-03-23T05:13:46;77619.00;;;-131.54
32827;BMP280;51059;42.058;27.986;2024-03-23T05:16:12;77576.34;;;-131.54
32827;BMP280;51059;42.058;27.986;2024-03-23T05:18:39;77514.34;;;-131.54
32827;BMP280;51059;42.058;27.986;2024-03-23T05:21:06;77498.81;;;-131.54
32827;BMP280;51059;42.058;27.986;2024-03-23T05:23:32;77504.63;;;-131.54
32827;BMP280;51059;42.058;27.986;2024-03-23T05:25:58;77493.00;;;-131.54
32827;BMP280;51059;42.058;27.986;2024-03-23T05:28:24;77434.88;;;-131.54
32827;BMP280;51059;42.058;27.986;2024-03-23T05:30:53;77429.06;;;-131.54
32827;BMP280;51059;42.058;27.986;2024-03-23T05:33:20;77431.00;;;-131.54
32827;BMP280;51059;42.058;27.986;2024-03-23T05:35:47;77384.47;;;-131.54
32827;BMP280;51059;42.058;27.986;2024-03-23T05:38:21;77372.84;;;-131.54
32827;BMP280;51059;42.058;27.986;2024-03-23T05:40:59;77314.72;;;-131.54
32827;BMP280;51059;42.058;27.986;2024-03-23T05:43:26;77301.16;;;-131.54
32827;BMP280;51059;42.058;27.986;2024-03-23T05:45:58;77275.97;;;-131.54
32827;BMP280;51059;42.058;27.986;2024-03-23T05:48:26;77266.28;;;-131.54
32827;BMP280;51059;42.058;27.986;2024-03-23T05:50:52;77231.38;;;-131.54
32827;BMP280;51059;42.058;27.986;2024-03-23T05:53:20;77225.56;;;-131.54
32827;BMP280;51059;42.058;27.986;2024-03-23T05:55:47;77202.31;;;-131.54
32827;BMP280;51059;42.058;27.986;2024-03-23T05:58:15;77138.38;;;-131.54
32827;BMP280;51059;42.058;27.986;2024-03-23T06:00:41;77086.06;;;-131.54
32827;BMP280;51059;42.058;27.986;2024-03-23T06:03:08;77047.31;;;-131.54
32827;BMP280;51059;42.058;27.986;2024-03-23T06:05:34;77043.44;;;-131.54
32827;BMP280;51059;42.058;27.986;2024-03-23T06:08:00;77025.97;;;-131.54
32827;BMP280;51059;42.058;27.986;2024-03-23T06:10:26;77025.97;;;-131.54
32827;BMP280;51059;42.058;27.986;2024-03-23T06:12:52;76967.84;;;-131.54
32827;BMP280;51059;42.058;27.986;2024-03-23T06:15:19;76956.22;;;-131.54
32827;BMP280;51059;42.058;27.986;2024-03-23T06:17:45;76927.16;;;-131.54
32827;BMP280;51059;42.058;27.986;2024-03-23T06:20:12;76896.16;;;-131.54
32827;BMP280;51059;42.058;27.986;2024-03-23T06:22:38;76934.91;;;-131.54
32827;BMP280;51059;42.058;27.986;2024-03-23T06:25:05;76888.41;;;-131.54
32827;BMP280;51059;42.058;27.986;2024-03-23T06:27:31;76830.28;;;-131.54
32827;BMP280;51059;42.058;27.986;2024-03-23T06:29:58;76836.09;;;-131.54
32827;BMP280;51059;42.058;27.986;2024-03-23T06:32:31;76760.53;;;-131.54
32827;BMP280;51059;42.058;27.986;2024-03-23T06:34:58;76702.41;;;-131.54
32827;BMP280;51059;42.058;27.986;2024-03-23T06:37:25;76706.28;;;-131.54
32827;BMP280;51059;42.058;27.986;2024-03-23T06:39:51;76706.28;;;-131.54
32827;BMP280;51059;42.058;27.986;2024-03-23T06:42:17;76694.66;;;-131.54
32827;BMP280;51059;42.058;27.986;2024-03-23T06:44:43;76657.84;;;-131.54
32827;BMP280;51059;42.058;27.986;2024-03-23T06:47:10;76621.03;;;-131.54
32827;BMP280;51059;42.058;27.986;2024-03-23T06:49:36;76613.28;;;-131.54
32827;BMP280;51059;42.058;27.986;2024-03-23T06:52:02;76607.47;;;-131.54
32827;BMP280;51059;42.058;27.986;2024-03-23T06:54:28;76572.59;;;-131.54
32827;BMP280;51059;42.058;27.986;2024-03-23T06:56:54;76545.47;;;-131.54
32827;BMP280;51059;42.058;27.986;2024-03-23T06:59:20;76498.97;;;-131.54
32827;BMP280;51059;42.058;27.986;2024-03-23T07:01:46;76498.97;;;-131.54
32827;BMP280;51059;42.058;27.986;2024-03-23T07:04:12;76425.34;;;-131.54
32827;BMP280;51059;42.058;27.986;2024-03-23T07:06:46;76444.72;;;-131.54
32827;BMP280;51059;42.058;27.986;2024-03-23T07:09:12;76380.78;;;-131.54
32827;BMP280;51059;42.058;27.986;2024-03-23T07:11:38;76411.78;;;-131.54
32827;BMP280;51059;42.058;27.986;2024-03-23T07:14:04;76413.72;;;-131.54
32827;BMP280;51059;42.058;27.986;2024-03-23T07:16:30;76380.78;;;-131.54
32827;BMP280;51059;42.058;27.986;2024-03-23T07:18:56;76398.22;;;-131.54
32827;BMP280;51059;42.058;27.986;2024-03-23T07:21:22;76351.72;;;-131.54
32827;BMP280;51059;42.058;27.986;2024-03-23T07:23:48;76342.06;;;-131.54
32827;BMP280;51059;42.058;27.986;2024-03-23T07:26:14;76659.78;;;-131.54
32827;BMP280;51059;42.058;27.986;2024-03-23T07:28:41;76714.03;;;-131.54
32827;BMP280;51059;42.058;27.986;2024-03-23T07:31:11;76574.53;;;-131.54
32827;BMP280;51059;42.058;27.986;2024-03-23T07:36:08;77033.72;;;-131.54
32827;BMP280;51059;42.058;27.986;2024-03-23T07:38:34;76936.84;;;-131.54
32827;BMP280;51059;42.058;27.986;2024-03-23T07:41:10;77025.97;;;-131.54
32827;BMP280;51059;42.058;27.986;2024-03-23T07:43:40;76996.91;;;-131.54
32827;BMP280;51059;42.058;27.986;2024-03-23T07:46:09;76927.16;;;-131.54
32827;BMP280;51059;42.058;27.986;2024-03-23T07:48:34;77016.28;;;-131.54
32827;BMP280;51059;42.058;27.986;2024-03-23T07:51:04;76931.03;;;-131.54
32827;BMP280;51059;42.058;27.986;2024-03-23T07:53:31;76927.16;;;-131.54
32827;BMP280;51059;42.058;27.986;2024-03-23T07:56:08;76911.66;;;-131.54
32827;BMP280;51059;42.058;27.986;2024-03-23T07:58:35;76859.34;;;-131.54
32827;BMP280;51059;42.058;27.986;2024-03-23T08:01:10;76923.28;;;-131.54
32827;BMP280;51059;42.058;27.986;2024-03-23T08:03:41;76975.59;;;-131.54
32827;BMP280;51059;42.058;27.986;2024-03-23T08:08:38;76975.59;;;-131.54
32827;BMP280;51059;42.058;27.986;2024-03-23T08:11:04;76944.59;;;-131.54
32827;BMP280;51059;42.058;27.986;2024-03-23T08:13:30;76956.22;;;-131.54
32827;BMP280;51059;42.058;27.986;2024-03-23T08:15:59;76983.34;;;-131.54
32827;BMP280;51059;42.058;27.986;2024-03-23T08:18:26;76954.28;;;-131.54
32827;BMP280;51059;42.058;27.986;2024-03-23T08:21:02;77093.81;;;-131.54
32827;BMP280;51059;42.058;27.986;2024-03-23T08:23:30;77029.84;;;-131.54
32827;BMP280;51059;42.058;27.986;2024-03-23T08:26:16;77033.72;;;-131.54
32827;BMP280;51059;42.058;27.986;2024-03-23T08:28:45;77082.19;;;-131.54
32827;BMP280;51059;42.058;27.986;2024-03-23T08:31:12;77109.31;;;-131.54
32827;BMP280;51059;42.058;27.986;2024-03-23T08:33:40;77165.50;;;-131.54
32827;BMP280;51059;42.058;27.986;2024-03-23T08:36:10;77091.88;;;-131.54
32827;BMP280;51059;42.058;27.986;2024-03-23T08:38:40;77233.31;;;-131.54
32827;BMP280;51059;42.058;27.986;2024-03-23T08:41:07;77181.00;;;-131.54
32827;BMP280;51059;42.058;27.986;2024-03-23T08:43:39;77171.31;;;-131.54
32827;BMP280;51059;42.058;27.986;2024-03-23T08:46:09;77299.22;;;-131.54
32827;BMP280;51059;42.058;27.986;2024-03-23T08:48:38;77200.38;;;-131.54
32827;BMP280;51059;42.058;27.986;2024-03-23T08:51:06;77239.13;;;-131.54
32827;BMP280;51059;42.058;27.986;2024-03-23T08:53:32;77266.28;;;-131.54
32827;BMP280;51059;42.058;27.986;2024-03-23T08:55:59;77227.50;;;-131.54
32827;BMP280;51059;42.058;27.986;2024-03-23T08:58:26;77287.59;;;-131.54
32827;BMP280;51059;42.058;27.986;2024-03-23T09:00:54;77186.81;;;-131.54
32827;BMP280;51059;42.058;27.986;2024-03-23T09:03:24;77262.41;;;-131.54
32827;BMP280;51059;42.058;27.986;2024-03-23T09:05:51;77184.88;;;-131.54
32827;BMP280;51059;42.058;27.986;2024-03-23T09:08:17;77318.59;;;-131.54
32827;BMP280;51059;42.058;27.986;2024-03-23T09:10:43;77184.88;;;-131.54
32827;BMP280;51059;42.058;27.986;2024-03-23T09:13:09;77225.56;;;-131.54
32827;BMP280;51059;42.058;27.986;2024-03-23T09:15:36;77225.56;;;-131.54
32827;BMP280;51059;42.058;27.986;2024-03-23T09:18:03;77213.94;;;-131.54
32827;BMP280;51059;42.058;27.986;2024-03-23T09:20:32;77151.94;;;-131.54
32827;BMP280;51059;42.058;27.986;2024-03-23T09:22:58;77188.75;;;-131.54
32827;BMP280;51059;42.058;27.986;2024-03-23T09:25:24;77246.91;;;-131.54
32827;BMP280;51059;42.058;27.986;2024-03-23T09:27:50;77244.94;;;-131.54
32827;BMP280;51059;42.058;27.986;2024-03-23T09:30:17;77221.69;;;-131.54
32827;BMP280;51059;42.058;27.986;2024-03-23T09:32:44;77310.84;;;-131.54
32827;BMP280;51059;42.058;27.986;2024-03-23T09:35:11;77318.59;;;-131.54
32827;BMP280;51059;42.058;27.986;2024-03-23T09:37:40;77241.06;;;-131.54
32827;BMP280;51059;42.058;27.986;2024-03-23T09:40:10;77264.34;;;-131.54
32827;BMP280;51059;42.058;27.986;2024-03-23T09:42:36;77250.78;;;-131.54
32827;BMP280;51059;42.058;27.986;2024-03-23T09:45:02;77266.28;;;-131.54
32827;BMP280;51059;42.058;27.986;2024-03-23T09:47:29;77237.19;;;-131.54
32827;BMP280;51059;42.058;27.986;2024-03-23T09:49:55;77252.69;;;-131.54
32827;BMP280;51059;42.058;27.986;2024-03-23T09:52:21;77295.34;;;-131.54
32827;BMP280;51059;42.058;27.986;2024-03-23T09:54:47;77270.16;;;-131.54
32827;BMP280;51059;42.058;27.986;2024-03-23T09:57:13;77324.41;;;-131.54
32827;BMP280;51059;42.058;27.986;2024-03-23T09:59:39;77353.47;;;-131.54
32827;BMP280;51059;42.058;27.986;2024-03-23T10:02:06;77349.59;;;-131.54
32827;BMP280;51059;42.058;27.986;2024-03-23T10:04:40;77312.78;;;-131.54
32827;BMP280;51059;42.058;27.986;2024-03-23T10:07:17;77308.91;;;-131.54
32827;BMP280;51059;42.058;27.986;2024-03-23T10:09:44;77310.84;;;-131.54
32827;BMP280;51059;42.058;27.986;2024-03-23T10:12:14;77376.72;;;-131.54
32827;BMP280;51059;42.058;27.986;2024-03-23T10:14:41;77322.47;;;-131.54
32827;BMP280;51059;42.058;27.986;2024-03-23T10:19:48;77324.41;;;-131.54
32827;BMP280;51059;42.058;27.986;2024-03-23T10:24:44;77289.53;;;-131.54
32827;BMP280;51059;42.058;27.986;2024-03-23T10:27:15;77239.13;;;-131.54
32827;BMP280;51059;42.058;27.986;2024-03-23T10:29:44;77270.16;;;-131.54
32827;BMP280;51059;42.058;27.986;2024-03-23T10:32:14;77283.72;;;-131.54
32827;BMP280;51059;42.058;27.986;2024-03-23T10:34:41;77283.72;;;-131.54
32827;BMP280;51059;42.058;27.986;2024-03-23T10:37:13;77279.84;;;-131.54
32827;BMP280;51059;42.058;27.986;2024-03-23T10:39:40;77272.09;;;-131.54
32827;BMP280;51059;42.058;27.986;2024-03-23T10:42:09;77365.09;;;-131.54
32827;BMP280;51059;42.058;27.986;2024-03-23T10:44:38;77337.97;;;-131.54
32827;BMP280;51059;42.058;27.986;2024-03-23T10:47:05;77345.72;;;-131.54
32827;BMP280;51059;42.058;27.986;2024-03-23T10:49:32;77368.97;;;-131.54
32827;BMP280;51059;42.058;27.986;2024-03-23T10:51:59;77339.91;;;-131.54
32827;BMP280;51059;42.058;27.986;2024-03-23T10:54:26;77396.09;;;-131.54
32827;BMP280;51059;42.058;27.986;2024-03-23T10:57:14;77322.47;;;-131.54
32827;BMP280;51059;42.058;27.986;2024-03-23T10:59:41;77349.59;;;-131.54
32827;BMP280;51059;42.058;27.986;2024-03-23T11:02:18;77308.91;;;-131.54
32827;BMP280;51059;42.058;27.986;2024-03-23T11:04:45;77363.16;;;-131.54
32827;BMP280;51059;42.058;27.986;2024-03-23T11:07:31;77361.22;;;-131.54
32827;BMP280;51059;42.058;27.986;2024-03-23T11:09:59;77279.84;;;-131.54
32827;BMP280;51059;42.058;27.986;2024-03-23T11:12:31;77275.97;;;-131.54
32827;BMP280;51059;42.058;27.986;2024-03-23T11:15:02;77295.34;;;-131.54
32827;BMP280;51059;42.058;27.986;2024-03-23T11:17:29;77345.72;;;-131.54
32827;BMP280;51059;42.058;27.986;2024-03-23T11:22:46;77359.28;;;-131.54
32827;BMP280;51059;42.058;27.986;2024-03-23T11:25:24;77256.59;;;-131.54
32827;BMP280;51059;42.058;27.986;2024-03-23T11:27:54;77343.78;;;-131.54
32827;BMP280;51059;42.058;27.986;2024-03-23T11:30:22;77343.78;;;-131.54
32827;BMP280;51059;42.058;27.986;2024-03-23T11:32:49;77353.47;;;-131.54
32827;BMP280;51059;42.058;27.986;2024-03-23T11:38:15;77363.16;;;-131.54
32827;BMP280;51059;42.058;27.986;2024-03-23T11:40:43;77367.03;;;-131.54
32827;BMP280;51059;42.058;27.986;2024-03-23T11:43:13;77347.66;;;-131.54
32827;BMP280;51059;42.058;27.986;2024-03-23T11:45:43;77349.59;;;-131.54
32827;BMP280;51059;42.058;27.986;2024-03-23T11:48:17;77328.28;;;-131.54
32827;BMP280;51059;42.058;27.986;2024-03-23T11:50:50;77370.91;;;-131.54
32827;BMP280;51059;42.058;27.986;2024-03-23T11:53:21;77349.59;;;-131.54
32827;BMP280;51059;42.058;27.986;2024-03-23T11:55:52;77396.09;;;-131.54
32827;BMP280;51059;42.058;27.986;2024-03-23T11:58:21;77361.22;;;-131.54
32827;BMP280;51059;42.058;27.986;2024-03-23T12:00:58;77390.28;;;-131.54
32827;BMP280;51059;42.058;27.986;2024-03-23T12:03:28;77367.03;;;-131.54
32827;BMP280;51059;42.058;27.986;2024-03-23T12:05:56;77382.53;;;-131.54
32827;BMP280;51059;42.058;27.986;2024-03-23T12:08:32;77394.19;;;-131.54
32827;BMP280;51059;42.058;27.986;2024-03-23T12:11:12;77401.94;;;-131.54
32827;BMP280;51059;42.058;27.986;2024-03-23T12:13:40;77390.28;;;-131.54
32827;BMP280;51059;42.058;27.986;2024-03-23T12:16:17;77365.09;;;-131.54
32827;BMP280;51059;42.058;27.986;2024-03-23T12:18:50;77386.41;;;-131.54
32827;BMP280;51059;42.058;27.986;2024-03-23T12:21:20;77392.22;;;-131.54
32827;BMP280;51059;42.058;27.986;2024-03-23T12:23:49;77407.75;;;-131.54
32827;BMP280;51059;42.058;27.986;2024-03-23T12:26:15;77390.28;;;-131.54
32827;BMP280;51059;42.058;27.986;2024-03-23T12:28:43;77380.59;;;-131.54
32827;BMP280;51059;42.058;27.986;2024-03-23T12:31:08;77388.34;;;-131.54
32827;BMP280;51059;42.058;27.986;2024-03-23T12:33:35;77345.72;;;-131.54
32827;BMP280;51059;42.058;27.986;2024-03-23T12:36:01;77367.03;;;-131.54
32827;BMP280;51059;42.058;27.986;2024-03-23T12:38:28;77337.97;;;-131.54
32827;BMP280;51059;42.058;27.986;2024-03-23T12:40:54;77351.53;;;-131.54
32827;BMP280;51059;42.058;27.986;2024-03-23T12:43:20;77361.22;;;-131.54
32827;BMP280;51059;42.058;27.986;2024-03-23T12:45:49;77341.84;;;-131.54
32827;BMP280;51059;42.058;27.986;2024-03-23T12:48:16;77332.16;;;-131.54
32827;BMP280;51059;42.058;27.986;2024-03-23T12:50:42;77363.16;;;-131.54
32827;BMP280;51059;42.058;27.986;2024-03-23T12:53:09;77336.03;;;-131.54
32827;BMP280;51059;42.058;27.986;2024-03-23T12:55:35;77349.59;;;-131.54
32827;BMP280;51059;42.058;27.986;2024-03-23T12:58:01;77334.09;;;-131.54
32827;BMP280;51059;42.058;27.986;2024-03-23T13:00:27;77318.59;;;-131.54
32827;BMP280;51059;42.058;27.986;2024-03-23T13:02:53;77318.59;;;-131.54
32827;BMP280;51059;42.058;27.986;2024-03-23T13:05:19;77324.41;;;-131.54
32827;BMP280;51059;42.058;27.986;2024-03-23T13:07:45;77347.66;;;-131.54
32827;BMP280;51059;42.058;27.986;2024-03-23T13:10:11;77320.53;;;-131.54
32827;BMP280;51059;42.058;27.986;2024-03-23T13:12:37;77353.47;;;-131.54
32827;BMP280;51059;42.058;27.986;2024-03-23T13:15:03;77394.19;;;-131.54
32827;BMP280;51059;42.058;27.986;2024-03-23T13:17:29;77363.16;;;-131.54
32827;BMP280;51059;42.058;27.986;2024-03-23T13:19:55;77398.06;;;-131.54
32827;BMP280;51059;42.058;27.986;2024-03-23T13:22:21;77374.78;;;-131.54
32827;BMP280;51059;42.058;27.986;2024-03-23T13:24:49;77368.97;;;-131.54
32827;BMP280;51059;42.058;27.986;2024-03-23T13:27:16;77372.84;;;-131.54
32827;BMP280;51059;42.058;27.986;2024-03-23T13:29:42;77388.34;;;-131.54
32827;BMP280;51059;42.058;27.986;2024-03-23T13:32:08;77380.59;;;-131.54
32827;BMP280;51059;42.058;27.986;2024-03-23T13:34:35;77370.91;;;-131.54
32827;BMP280;51059;42.058;27.986;2024-03-23T13:37:02;77388.34;;;-131.54
32827;BMP280;51059;42.058;27.986;2024-03-23T13:39:28;77341.84;;;-131.54
32827;BMP280;51059;42.058;27.986;2024-03-23T13:41:54;77328.28;;;-131.54
32827;BMP280;51059;42.058;27.986;2024-03-23T13:44:23;77345.72;;;-131.54
32827;BMP280;51059;42.058;27.986;2024-03-23T13:46:49;77345.72;;;-131.54
32827;BMP280;51059;42.058;27.986;2024-03-23T13:49:27;77341.84;;;-131.54
32827;BMP280;51059;42.058;27.986;2024-03-23T13:51:55;77314.72;;;-131.54
32827;BMP280;51059;42.058;27.986;2024-03-23T13:54:21;77310.84;;;-131.54
32827;BMP280;51059;42.058;27.986;2024-03-23T13:56:53;77322.47;;;-131.54
32827;BMP280;51059;42.058;27.986;2024-03-23T13:59:21;77274.03;;;-131.54
32827;BMP280;51059;42.058;27.986;2024-03-23T14:01:51;77256.59;;;-131.54
32827;BMP280;51059;42.058;27.986;2024-03-23T14:04:18;77254.66;;;-131.54
32827;BMP280;51059;42.058;27.986;2024-03-23T14:06:47;77243.00;;;-131.54
32827;BMP280;51059;42.058;27.986;2024-03-23T14:09:13;77237.19;;;-131.54
32827;BMP280;51059;42.058;27.986;2024-03-23T14:11:41;77202.31;;;-131.54
32827;BMP280;51059;42.058;27.986;2024-03-23T14:14:09;77233.31;;;-131.54
32827;BMP280;51059;42.058;27.986;2024-03-23T14:16:35;77229.44;;;-131.54
32827;BMP280;51059;42.058;27.986;2024-03-23T14:19:01;77227.50;;;-131.54
32827;BMP280;51059;42.058;27.986;2024-03-23T14:21:31;77194.56;;;-131.54
32827;BMP280;51059;42.058;27.986;2024-03-23T14:23:57;77217.81;;;-131.54
32827;BMP280;51059;42.058;27.986;2024-03-23T14:26:24;77204.25;;;-131.54
32827;BMP280;51059;42.058;27.986;2024-03-23T14:28:51;77204.25;;;-131.54
32827;BMP280;51059;42.058;27.986;2024-03-23T14:31:16;77213.94;;;-131.54
32827;BMP280;51059;42.058;27.986;2024-03-23T14:33:42;77204.25;;;-131.54
32827;BMP280;51059;42.058;27.986;2024-03-23T14:36:17;77181.00;;;-131.54
32827;BMP280;51059;42.058;27.986;2024-03-23T14:38:49;77198.44;;;-131.54
32827;BMP280;51059;42.058;27.986;2024-03-23T14:41:15;77206.19;;;-131.54
32827;BMP280;51059;42.058;27.986;2024-03-23T14:43:41;77229.44;;;-131.54